sensor_id;sensor_type;location;lat;lon;timestamp;temperature;humidity
18880;DHT22;9572;52.378;13.404;2024-03-23T00:54:52;8.40;99.90
18880;DHT22;9572;52.378;13.404;2024-03-23T00:57:19;8.30;99.90
18880;DHT22;9572;52.378;13.404;2024-03-23T00:59:45;8.20;99.90
18880;DHT22;9572;52.378;13.404;2024-03-23T01:02:12;8.30;99.90
18880;DHT22;9572;52.378;13.404;2024-03-23T01:04:37;8.30;99.90
18880;DHT22;9572;52.378;13.404;2024-03-23T01:07:04;8.30;99.90
18880;DHT22;9572;52.378;13.404;2024-03-23T01:09:30;8.30;99.90
18880;DHT22;9572;52.378;13.404;2024-03-23T01:11:58;8.30;99.90
18880;DHT22;9572;52.378;13.404;2024-03-23T01:14:24;8.30;99.90
18880;DHT22;9572;52.378;13.404;2024-03-23T01:16:50;8.30;99.90
18880;DHT22;9572;52.378;13.404;2024-03-23T01:19:16;8.30;99.90
18880;DHT22;9572;52.378;13.404;2024-03-23T01:21:43;8.30;99.90
18880;DHT22;9572;52.378;13.404;2024-03-23T01:24:08;8.40;99.90
18880;DHT22;9572;52.378;13.404;2024-03-23T01:26:36;8.40;99.90
18880;DHT22;9572;52.378;13.404;2024-03-23T01:29:04;8.30;99.90
18880;DHT22;9572;52.378;13.404;2024-03-23T01:31:30;8.30;99.90
18880;DHT22;9572;52.378;13.404;2024-03-23T01:33:56;8.20;99.90
18880;DHT22;9572;52.378;13.404;2024-03-23T01:36:24;8.10;99.90
18880;DHT22;9572;52.378;13.404;2024-03-23T01:38:50;8.10;99.90
18880;DHT22;9572;52.378;13.404;2024-03-23T01:41:17;8.10;99.90
18880;DHT22;9572;52.378;13.404;2024-03-23T01:43:43;8.00;99.90
18880;DHT22;9572;52.378;13.404;2024-03-23T01:46:11;8.00;99.90
18880;DHT22;9572;52.378;13.404;2024-03-23T01:48:37;8.00;99.90
18880;DHT22;9572;52.378;13.404;2024-03-23T01:51:04;8.10;99.90
18880;DHT22;9572;52.378;13.404;2024-03-23T01:53:30;8.10;99.90
18880;DHT22;9572;52.378;13.404;2024-03-23T01:55:57;8.20;99.90
18880;DHT22;9572;52.378;13.404;2024-03-23T01:58:23;8.30;99.90
18880;DHT22;9572;52.378;13.404;2024-03-23T02:00:50;8.30;99.90
18880;DHT22;9572;52.378;13.404;2024-03-23T02:03:26;8.30;99.90
18880;DHT22;9572;52.378;13.404;2024-03-23T02:05:54;8.30;99.90
18880;DHT22;9572;52.378;13.404;2024-03-23T02:08:22;8.30;99.90
18880;DHT22;9572;52.378;13.404;2024-03-23T02:10:49;8.40;99.90
18880;DHT22;9572;52.378;13.404;2024-03-23T02:13:15;8.40;99.90
18880;DHT22;9572;52.378;13.404;2024-03-23T02:15:42;8.40;99.90
18880;DHT22;9572;52.378;13.404;2024-03-23T02:18:11;8.30;99.90
18880;DHT22;9572;52.378;13.404;2024-03-23T02:20:39;8.30;99.90
18880;DHT22;9572;52.378;13.404;2024-03-23T02:23:13;8.30;99.90
18880;DHT22;9572;52.378;13.404;2024-03-23T02:25:39;8.20;99.90
18880;DHT22;9572;52.378;13.404;2024-03-23T02:28:05;8.30;99.90
18880;DHT22;9572;52.378;13.404;2024-03-23T02:30:32;8.20;99.90
18880;DHT22;9572;52.378;13.404;2024-03-23T02:32:58;8.30;99.90
18880;DHT22;9572;52.378;13.404;2024-03-23T02:35:25;8.20;99.90
18880;DHT22;9572;52.378;13.404;2024-03-23T02:37:50;8.10;99.90
18880;DHT22;9572;52.378;13.404;2024-03-23T02:40:20;8.20;99.90
18880;DHT22;9572;52.378;13.404;2024-03-23T02:42:46;8.30;99.90
18880;DHT22;9572;52.378;13.404;2024-03-23T02:45:12;8.30;99.90
18880;DHT22;9572;52.378;13.404;2024-03-23T02:47:38;8.20;99.90
18880;DHT22;9572;52.378;13.404;2024-03-23T02:50:06;8.30;99.90
18880;DHT22;9572;52.378;13.404;2024-03-23T02:52:32;8.30;99.90
18880;DHT22;9572;52.378;13.404;2024-03-23T02:54:58;8.30;99.90
18880;DHT22;9572;52.378;13.404;2024-03-23T02:57:26;8.30;99.90
18880;DHT22;9572;52.378;13.404;2024-03-23T02:59:52;8.30;99.90
18880;DHT22;9572;52.378;13.404;2024-03-23T03:02:18;8.30;99.90
18880;DHT22;9572;52.378;13.404;2024-03-23T03:04:45;8.30;99.90
18880;DHT22;9572;52.378;13.404;2024-03-23T03:07:10;8.20;99.90
18880;DHT22;9572;52.378;13.404;2024-03-23T03:09:37;8.20;99.90
18880;DHT22;9572;52.378;13.404;2024-03-23T03:12:05;8.30;99.90
18880;DHT22;9572;52.378;13.404;2024-03-23T03:14:33;8.20;99.90
18880;DHT22;9572;52.378;13.404;2024-03-23T03:16:59;8.30;99.90
18880;DHT22;9572;52.378;13.404;2024-03-23T03:19:26;8.20;99.90
18880;DHT22;9572;52.378;13.404;2024-03-23T03:21:51;8.10;99.90
18880;DHT22;9572;52.378;13.404;2024-03-23T03:24:18;8.10;99.90
18880;DHT22;9572;52.378;13.404;2024-03-23T03:26:44;8.00;99.90
18880;DHT22;9572;52.378;13.404;2024-03-23T03:29:11;8.10;99.90
18880;DHT22;9572;52.378;13.404;2024-03-23T03:31:38;8.10;99.90
18880;DHT22;9572;52.378;13.404;2024-03-23T03:34:05;8.10;99.90
18880;DHT22;9572;52.378;13.404;2024-03-23T03:36:31;8.00;99.90
18880;DHT22;9572;52.378;13.404;2024-03-23T03:38:58;8.00;99.90
18880;DHT22;9572;52.378;13.404;2024-03-23T03:41:24;8.00;99.90
18880;DHT22;9572;52.378;13.404;2024-03-23T03:43:50;8.10;99.90
18880;DHT22;9572;52.378;13.404;2024-03-23T03:46:16;8.00;99.90
18880;DHT22;9572;52.378;13.404;2024-03-23T03:48:44;8.10;99.90
18880;DHT22;9572;52.378;13.404;2024-03-23T03:51:10;8.20;99.90
18880;DHT22;9572;52.378;13.404;2024-03-23T03:53:37;8.30;99.90
18880;DHT22;9572;52.378;13.404;2024-03-23T03:56:03;8.20;99.90
18880;DHT22;9572;52.378;13.404;2024-03-23T03:58:30;8.10;99.90
18880;DHT22;9572;52.378;13.404;2024-03-23T04:00:56;8.20;99.90
18880;DHT22;9572;52.378;13.404;2024-03-23T04:03:22;8.20;99.90
18880;DHT22;9572;52.378;13.404;2024-03-23T04:05:51;8.10;99.90
18880;DHT22;9572;52.378;13.404;2024-03-23T04:08:18;8.00;99.90
18880;DHT22;9572;52.378;13.404;2024-03-23T04:10:45;8.00;99.90
18880;DHT22;9572;52.378;13.404;2024-03-23T04:13:11;8.00;99.90
18880;DHT22;9572;52.378;13.404;2024-03-23T04:15:38;8.10;99.90
18880;DHT22;9572;52.378;13.404;2024-03-23T04:18:05;8.00;99.90
18880;DHT22;9572;52.378;13.404;2024-03-23T04:20:31;8.00;99.90
18880;DHT22;9572;52.378;13.404;2024-03-23T04:22:59;7.80;99.90
18880;DHT22;9572;52.378;13.404;2024-03-23T04:25:26;7.80;99.90
18880;DHT22;9572;52.378;13.404;2024-03-23T04:27:52;7.90;99.90
18880;DHT22;9572;52.378;13.404;2024-03-23T04:30:19;7.90;99.90
18880;DHT22;9572;52.378;13.404;2024-03-23T04:32:45;7.80;99.90
18880;DHT22;9572;52.378;13.404;2024-03-23T04:35:13;7.70;99.90
18880;DHT22;9572;52.378;13.404;2024-03-23T04:37:45;7.60;99.90
18880;DHT22;9572;52.378;13.404;2024-03-23T04:40:16;7.50;99.90
18880;DHT22;9572;52.378;13.404;2024-03-23T04:42:42;7.40;99.90
18880;DHT22;9572;52.378;13.404;2024-03-23T04:45:09;7.40;99.90
18880;DHT22;9572;52.378;13.404;2024-03-23T04:47:37;7.40;99.90
18880;DHT22;9572;52.378;13.404;2024-03-23T04:50:04;7.30;99.90
18880;DHT22;9572;52.378;13.404;2024-03-23T04:52:31;7.20;99.90
18880;DHT22;9572;52.378;13.404;2024-03-23T04:54:58;7.20;99.90
18880;DHT22;9572;52.378;13.404;2024-03-23T04:57:26;7.20;99.90
18880;DHT22;9572;52.378;13.404;2024-03-23T04:59:53;7.10;99.90
18880;DHT22;9572;52.378;13.404;2024-03-23T05:02:18;7.10;99.90
18880;DHT22;9572;52.378;13.404;2024-03-23T05:04:45;7.10;99.90
18880;DHT22;9572;52.378;13.404;2024-03-23T05:07:11;7.10;99.90
18880;DHT22;9572;52.378;13.404;2024-03-23T05:09:38;7.10;99.90
18880;DHT22;9572;52.378;13.404;2024-03-23T05:12:04;7.20;99.90
18880;DHT22;9572;52.378;13.404;2024-03-23T05:14:32;7.20;99.90
18880;DHT22;9572;52.378;13.404;2024-03-23T05:16:58;7.30;99.90
18880;DHT22;9572;52.378;13.404;2024-03-23T05:19:25;7.40;99.90
18880;DHT22;9572;52.378;13.404;2024-03-23T05:21:51;7.40;99.90
18880;DHT22;9572;52.378;13.404;2024-03-23T05:24:18;7.50;99.90
18880;DHT22;9572;52.378;13.404;2024-03-23T05:26:44;7.40;99.90
18880;DHT22;9572;52.378;13.404;2024-03-23T05:29:11;7.30;99.90
18880;DHT22;9572;52.378;13.404;2024-03-23T05:31:40;7.10;99.90
18880;DHT22;9572;52.378;13.404;2024-03-23T05:34:07;7.10;99.90
18880;DHT22;9572;52.378;13.404;2024-03-23T05:36:34;7.10;99.90
18880;DHT22;9572;52.378;13.404;2024-03-23T05:39:01;7.10;99.90
18880;DHT22;9572;52.378;13.404;2024-03-23T05:41:27;7.10;99.90
18880;DHT22;9572;52.378;13.404;2024-03-23T05:43:54;7.10;99.90
18880;DHT22;9572;52.378;13.404;2024-03-23T05:46:19;6.90;99.90
18880;DHT22;9572;52.378;13.404;2024-03-23T05:48:47;6.90;99.90
18880;DHT22;9572;52.378;13.404;2024-03-23T05:51:13;6.90;99.90
18880;DHT22;9572;52.378;13.404;2024-03-23T05:53:41;6.90;99.90
18880;DHT22;9572;52.378;13.404;2024-03-23T05:56:07;6.90;99.90
18880;DHT22;9572;52.378;13.404;2024-03-23T05:58:34;6.90;99.90
18880;DHT22;9572;52.378;13.404;2024-03-23T06:01:01;7.00;99.90
18880;DHT22;9572;52.378;13.404;2024-03-23T06:03:28;7.00;99.90
18880;DHT22;9572;52.378;13.404;2024-03-23T06:05:55;6.90;99.90
18880;DHT22;9572;52.378;13.404;2024-03-23T06:08:22;6.90;99.90
18880;DHT22;9572;52.378;13.404;2024-03-23T06:10:49;6.90;99.90
18880;DHT22;9572;52.378;13.404;2024-03-23T06:13:16;6.90;99.90
18880;DHT22;9572;52.378;13.404;2024-03-23T06:15:43;6.90;99.90
18880;DHT22;9572;52.378;13.404;2024-03-23T06:18:10;6.80;99.90
18880;DHT22;9572;52.378;13.404;2024-03-23T06:20:37;6.90;99.90
18880;DHT22;9572;52.378;13.404;2024-03-23T06:23:05;6.90;99.90
18880;DHT22;9572;52.378;13.404;2024-03-23T06:25:31;7.00;99.90
18880;DHT22;9572;52.378;13.404;2024-03-23T06:27:57;7.10;99.90
18880;DHT22;9572;52.378;13.404;2024-03-23T06:30:25;7.20;99.90
18880;DHT22;9572;52.378;13.404;2024-03-23T06:32:52;7.30;99.90
18880;DHT22;9572;52.378;13.404;2024-03-23T06:35:19;7.20;99.90
18880;DHT22;9572;52.378;13.404;2024-03-23T06:37:44;7.10;99.90
18880;DHT22;9572;52.378;13.404;2024-03-23T06:40:12;7.10;99.90
18880;DHT22;9572;52.378;13.404;2024-03-23T06:42:38;7.20;99.90
18880;DHT22;9572;52.378;13.404;2024-03-23T06:45:06;7.20;99.90
18880;DHT22;9572;52.378;13.404;2024-03-23T06:47:32;7.40;99.90
18880;DHT22;9572;52.378;13.404;2024-03-23T06:49:59;7.40;99.90
18880;DHT22;9572;52.378;13.404;2024-03-23T06:52:27;7.30;99.90
18880;DHT22;9572;52.378;13.404;2024-03-23T06:54:54;7.30;99.90
18880;DHT22;9572;52.378;13.404;2024-03-23T06:57:21;7.30;99.90
18880;DHT22;9572;52.378;13.404;2024-03-23T06:59:48;7.20;99.90
18880;DHT22;9572;52.378;13.404;2024-03-23T07:02:15;7.30;99.90
18880;DHT22;9572;52.378;13.404;2024-03-23T07:04:42;7.30;99.90
18880;DHT22;9572;52.378;13.404;2024-03-23T07:07:08;7.20;99.90
18880;DHT22;9572;52.378;13.404;2024-03-23T07:09:34;7.20;99.90
18880;DHT22;9572;52.378;13.404;2024-03-23T07:12:00;7.20;99.90
18880;DHT22;9572;52.378;13.404;2024-03-23T07:14:28;7.20;99.90
18880;DHT22;9572;52.378;13.404;2024-03-23T07:16:54;7.20;99.90
18880;DHT22;9572;52.378;13.404;2024-03-23T07:19:21;7.30;99.90
18880;DHT22;9572;52.378;13.404;2024-03-23T07:21:46;7.30;99.90
18880;DHT22;9572;52.378;13.404;2024-03-23T07:24:13;7.30;99.90
18880;DHT22;9572;52.378;13.404;2024-03-23T07:26:39;7.20;99.90
18880;DHT22;9572;52.378;13.404;2024-03-23T07:29:06;7.30;99.90
18880;DHT22;9572;52.378;13.404;2024-03-23T07:31:33;7.40;99.90
18880;DHT22;9572;52.378;13.404;2024-03-23T07:34:00;7.40;99.90
18880;DHT22;9572;52.378;13.404;2024-03-23T07:36:26;7.40;99.90
18880;DHT22;9572;52.378;13.404;2024-03-23T07:38:52;7.40;99.90
18880;DHT22;9572;52.378;13.404;2024-03-23T07:41:19;7.50;99.90
18880;DHT22;9572;52.378;13.404;2024-03-23T07:43:47;7.30;99.90
18880;DHT22;9572;52.378;13.404;2024-03-23T07:46:14;7.30;99.90
18880;DHT22;9572;52.378;13.404;2024-03-23T07:48:42;7.40;99.90
18880;DHT22;9572;52.378;13.404;2024-03-23T07:51:10;7.30;99.90
18880;DHT22;9572;52.378;13.404;2024-03-23T07:53:37;7.30;99.90
18880;DHT22;9572;52.378;13.404;2024-03-23T07:56:06;7.20;99.90
18880;DHT22;9572;52.378;13.404;2024-03-23T07:58:33;7.00;99.90
18880;DHT22;9572;52.378;13.404;2024-03-23T08:01:04;7.00;99.90
18880;DHT22;9572;52.378;13.404;2024-03-23T08:03:33;7.00;99.90
18880;DHT22;9572;52.378;13.404;2024-03-23T08:06:08;7.00;99.90
18880;DHT22;9572;52.378;13.404;2024-03-23T08:08:35;7.00;99.90
18880;DHT22;9572;52.378;13.404;2024-03-23T08:11:01;7.00;99.90
18880;DHT22;9572;52.378;13.404;2024-03-23T08:13:28;7.10;99.90
18880;DHT22;9572;52.378;13.404;2024-03-23T08:15:56;7.10;99.90
18880;DHT22;9572;52.378;13.404;2024-03-23T08:18:23;7.00;99.90
18880;DHT22;9572;52.378;13.404;2024-03-23T08:20:55;7.00;99.90
18880;DHT22;9572;52.378;13.404;2024-03-23T08:23:24;6.90;99.90
18880;DHT22;9572;52.378;13.404;2024-03-23T08:25:49;6.90;99.90
18880;DHT22;9572;52.378;13.404;2024-03-23T08:28:16;7.00;99.90
18880;DHT22;9572;52.378;13.404;2024-03-23T08:30:43;7.00;99.90
18880;DHT22;9572;52.378;13.404;2024-03-23T08:33:09;6.90;99.90
18880;DHT22;9572;52.378;13.404;2024-03-23T08:35:35;6.90;99.90
18880;DHT22;9572;52.378;13.404;2024-03-23T08:38:02;7.00;99.90
18880;DHT22;9572;52.378;13.404;2024-03-23T08:40:29;7.00;99.90
18880;DHT22;9572;52.378;13.404;2024-03-23T08:42:56;7.00;99.90
18880;DHT22;9572;52.378;13.404;2024-03-23T08:45:22;7.00;99.90
18880;DHT22;9572;52.378;13.404;2024-03-23T08:47:48;7.00;99.90
18880;DHT22;9572;52.378;13.404;2024-03-23T08:50:14;7.00;99.90
18880;DHT22;9572;52.378;13.404;2024-03-23T08:52:41;7.10;99.90
18880;DHT22;9572;52.378;13.404;2024-03-23T08:55:07;7.10;99.90
18880;DHT22;9572;52.378;13.404;2024-03-23T08:57:36;6.90;99.90
18880;DHT22;9572;52.378;13.404;2024-03-23T09:00:02;6.80;99.90
18880;DHT22;9572;52.378;13.404;2024-03-23T09:02:31;6.80;99.90
18880;DHT22;9572;52.378;13.404;2024-03-23T09:04:57;6.70;99.90
18880;DHT22;9572;52.378;13.404;2024-03-23T09:07:30;6.60;99.90
18880;DHT22;9572;52.378;13.404;2024-03-23T09:09:55;6.60;99.90
18880;DHT22;9572;52.378;13.404;2024-03-23T09:12:22;6.40;99.90
18880;DHT22;9572;52.378;13.404;2024-03-23T09:14:49;6.30;99.90
18880;DHT22;9572;52.378;13.404;2024-03-23T09:17:16;6.20;99.90
18880;DHT22;9572;52.378;13.404;2024-03-23T09:19:43;6.20;99.90
18880;DHT22;9572;52.378;13.404;2024-03-23T09:22:10;6.20;99.90
18880;DHT22;9572;52.378;13.404;2024-03-23T09:24:36;6.20;99.90
18880;DHT22;9572;52.378;13.404;2024-03-23T09:27:03;6.20;99.90
18880;DHT22;9572;52.378;13.404;2024-03-23T09:29:28;6.10;99.90
18880;DHT22;9572;52.378;13.404;2024-03-23T09:31:56;6.00;99.90
18880;DHT22;9572;52.378;13.404;2024-03-23T09:34:22;5.80;99.90
18880;DHT22;9572;52.378;13.404;2024-03-23T09:36:51;5.70;99.90
18880;DHT22;9572;52.378;13.404;2024-03-23T09:39:17;5.50;99.90
18880;DHT22;9572;52.378;13.404;2024-03-23T09:41:44;5.40;99.90
18880;DHT22;9572;52.378;13.404;2024-03-23T09:44:09;5.40;99.90
18880;DHT22;9572;52.378;13.404;2024-03-23T09:46:36;5.30;99.90
18880;DHT22;9572;52.378;13.404;2024-03-23T09:49:07;5.30;99.90
18880;DHT22;9572;52.378;13.404;2024-03-23T09:51:35;5.30;99.90
18880;DHT22;9572;52.378;13.404;2024-03-23T09:54:02;5.30;99.90
18880;DHT22;9572;52.378;13.404;2024-03-23T09:56:28;5.30;99.90
18880;DHT22;9572;52.378;13.404;2024-03-23T09:59:00;5.30;99.90
18880;DHT22;9572;52.378;13.404;2024-03-23T10:01:29;5.30;99.90
18880;DHT22;9572;52.378;13.404;2024-03-23T10:03:54;5.40;99.90
18880;DHT22;9572;52.378;13.404;2024-03-23T10:06:23;5.30;99.90
18880;DHT22;9572;52.378;13.404;2024-03-23T10:08:50;5.30;99.90
18880;DHT22;9572;52.378;13.404;2024-03-23T10:11:18;5.30;99.90
18880;DHT22;9572;52.378;13.404;2024-03-23T10:13:45;5.30;99.90
18880;DHT22;9572;52.378;13.404;2024-03-23T10:16:12;5.30;99.90
18880;DHT22;9572;52.378;13.404;2024-03-23T10:18:45;5.40;99.90
18880;DHT22;9572;52.378;13.404;2024-03-23T10:21:15;5.40;99.90
18880;DHT22;9572;52.378;13.404;2024-03-23T10:23:43;5.50;99.90
18880;DHT22;9572;52.378;13.404;2024-03-23T10:26:14;5.40;99.90
18880;DHT22;9572;52.378;13.404;2024-03-23T10:28:54;5.30;99.90
18880;DHT22;9572;52.378;13.404;2024-03-23T10:31:22;5.30;99.90
18880;DHT22;9572;52.378;13.404;2024-03-23T10:33:48;5.30;99.90
18880;DHT22;9572;52.378;13.404;2024-03-23T10:36:15;5.20;99.90
18880;DHT22;9572;52.378;13.404;2024-03-23T10:38:44;5.10;99.90
18880;DHT22;9572;52.378;13.404;2024-03-23T10:41:11;5.20;99.90
18880;DHT22;9572;52.378;13.404;2024-03-23T10:43:37;5.20;99.90
18880;DHT22;9572;52.378;13.404;2024-03-23T10:46:04;5.20;99.90
18880;DHT22;9572;52.378;13.404;2024-03-23T10:48:31;5.30;99.90
18880;DHT22;9572;52.378;13.404;2024-03-23T10:50:58;5.30;99.90
18880;DHT22;9572;52.378;13.404;2024-03-23T10:53:26;5.30;99.90
18880;DHT22;9572;52.378;13.404;2024-03-23T10:55:55;5.20;99.90
18880;DHT22;9572;52.378;13.404;2024-03-23T10:58:24;5.20;99.90
18880;DHT22;9572;52.378;13.404;2024-03-23T11:00:53;5.30;99.90
18880;DHT22;9572;52.378;13.404;2024-03-23T11:03:36;5.30;99.90
18880;DHT22;9572;52.378;13.404;2024-03-23T11:06:03;5.20;99.90
18880;DHT22;9572;52.378;13.404;2024-03-23T11:08:31;5.30;99.90
18880;DHT22;9572;52.378;13.404;2024-03-23T11:11:18;5.30;99.90
18880;DHT22;9572;52.378;13.404;2024-03-23T11:13:44;5.40;99.90
18880;DHT22;9572;52.378;13.404;2024-03-23T11:16:15;5.40;99.90
18880;DHT22;9572;52.378;13.404;2024-03-23T11:18:41;5.60;99.90
18880;DHT22;9572;52.378;13.404;2024-03-23T11:21:09;5.60;99.90
18880;DHT22;9572;52.378;13.404;2024-03-23T11:23:35;5.60;99.90
18880;DHT22;9572;52.378;13.404;2024-03-23T11:26:02;5.60;99.90
18880;DHT22;9572;52.378;13.404;2024-03-23T11:28:30;5.70;99.90
18880;DHT22;9572;52.378;13.404;2024-03-23T11:30:57;5.70;99.90
18880;DHT22;9572;52.378;13.404;2024-03-23T11:33:23;5.70;99.90
18880;DHT22;9572;52.378;13.404;2024-03-23T11:35:50;5.80;99.90
18880;DHT22;9572;52.378;13.404;2024-03-23T11:38:17;6.00;99.90
18880;DHT22;9572;52.378;13.404;2024-03-23T11:40:45;6.00;99.90
18880;DHT22;9572;52.378;13.404;2024-03-23T11:43:13;6.00;99.90
18880;DHT22;9572;52.378;13.404;2024-03-23T11:45:43;6.00;99.90
18880;DHT22;9572;52.378;13.404;2024-03-23T11:48:10;6.20;99.90
18880;DHT22;9572;52.378;13.404;2024-03-23T11:50:38;6.30;99.90
18880;DHT22;9572;52.378;13.404;2024-03-23T11:53:24;6.30;99.90
18880;DHT22;9572;52.378;13.404;2024-03-23T11:55:55;6.40;99.90
18880;DHT22;9572;52.378;13.404;2024-03-23T11:58:22;6.50;99.90
18880;DHT22;9572;52.378;13.404;2024-03-23T12:00:52;6.60;99.90
18880;DHT22;9572;52.378;13.404;2024-03-23T12:03:18;6.70;99.90
18880;DHT22;9572;52.378;13.404;2024-03-23T12:05:49;6.70;99.90
18880;DHT22;9572;52.378;13.404;2024-03-23T12:08:16;6.70;99.90
18880;DHT22;9572;52.378;13.404;2024-03-23T12:10:44;6.70;99.90
18880;DHT22;9572;52.378;13.404;2024-03-23T12:13:11;6.70;99.90
18880;DHT22;9572;52.378;13.404;2024-03-23T12:15:37;6.70;99.90
18880;DHT22;9572;52.378;13.404;2024-03-23T12:18:08;6.70;99.90
18880;DHT22;9572;52.378;13.404;2024-03-23T12:20:36;6.80;99.90
18880;DHT22;9572;52.378;13.404;2024-03-23T12:23:09;6.90;99.90
18880;DHT22;9572;52.378;13.404;2024-03-23T12:25:37;6.80;99.90
18880;DHT22;9572;52.378;13.404;2024-03-23T12:28:03;6.80;99.90
18880;DHT22;9572;52.378;13.404;2024-03-23T12:30:32;6.80;99.90
18880;DHT22;9572;52.378;13.404;2024-03-23T12:32:57;6.90;99.90
18880;DHT22;9572;52.378;13.404;2024-03-23T12:35:25;6.90;99.90
18880;DHT22;9572;52.378;13.404;2024-03-23T12:37:51;6.90;99.90
18880;DHT22;9572;52.378;13.404;2024-03-23T12:40:18;7.00;99.90
18880;DHT22;9572;52.378;13.404;2024-03-23T12:42:44;6.90;99.90
18880;DHT22;9572;52.378;13.404;2024-03-23T12:45:10;7.00;99.90
18880;DHT22;9572;52.378;13.404;2024-03-23T12:47:36;7.00;99.90
18880;DHT22;9572;52.378;13.404;2024-03-23T12:50:03;7.00;99.90
18880;DHT22;9572;52.378;13.404;2024-03-23T12:52:30;7.00;99.90
18880;DHT22;9572;52.378;13.404;2024-03-23T12:54:57;7.00;99.90
18880;DHT22;9572;52.378;13.404;2024-03-23T12:57:24;7.10;99.90
18880;DHT22;9572;52.378;13.404;2024-03-23T12:59:51;7.20;99.90
18880;DHT22;9572;52.378;13.404;2024-03-23T13:02:18;7.20;99.90
18880;DHT22;9572;52.378;13.404;2024-03-23T13:04:46;7.20;99.90
18880;DHT22;9572;52.378;13.404;2024-03-23T13:07:12;7.30;99.90
18880;DHT22;9572;52.378;13.404;2024-03-23T13:09:40;7.40;99.90
18880;DHT22;9572;52.378;13.404;2024-03-23T13:12:07;7.60;99.90
18880;DHT22;9572;52.378;13.404;2024-03-23T13:14:34;7.70;99.90
18880;DHT22;9572;52.378;13.404;2024-03-23T13:16:59;7.80;99.90
18880;DHT22;9572;52.378;13.404;2024-03-23T13:19:27;7.90;99.90
18880;DHT22;9572;52.378;13.404;2024-03-23T13:21:56;8.20;99.90
18880;DHT22;9572;52.378;13.404;2024-03-23T13:24:23;8.50;99.90
18880;DHT22;9572;52.378;13.404;2024-03-23T13:26:51;8.70;99.90
18880;DHT22;9572;52.378;13.404;2024-03-23T13:29:18;8.90;99.90
18880;DHT22;9572;52.378;13.404;2024-03-23T13:31:44;9.00;99.90
18880;DHT22;9572;52.378;13.404;2024-03-23T13:34:11;9.30;99.90
18880;DHT22;9572;52.378;13.404;2024-03-23T13:36:38;9.30;99.90
18880;DHT22;9572;52.378;13.404;2024-03-23T13:39:05;9.20;99.90
18880;DHT22;9572;52.378;13.404;2024-03-23T13:41:37;9.10;99.90
18880;DHT22;9572;52.378;13.404;2024-03-23T13:44:05;9.10;99.90
18880;DHT22;9572;52.378;13.404;2024-03-23T13:46:31;9.20;99.90
18880;DHT22;9572;52.378;13.404;2024-03-23T13:48:58;9.20;99.90
18880;DHT22;9572;52.378;13.404;2024-03-23T13:51:24;9.10;99.90
18880;DHT22;9572;52.378;13.404;2024-03-23T13:53:52;9.00;99.90
18880;DHT22;9572;52.378;13.404;2024-03-23T13:56:18;8.90;99.90
18880;DHT22;9572;52.378;13.404;2024-03-23T13:58:45;8.90;99.90
18880;DHT22;9572;52.378;13.404;2024-03-23T14:01:14;9.00;99.90
18880;DHT22;9572;52.378;13.404;2024-03-23T14:03:41;9.20;99.90
18880;DHT22;9572;52.378;13.404;2024-03-23T14:06:07;9.40;99.90
18880;DHT22;9572;52.378;13.404;2024-03-23T14:08:34;9.60;99.90
18880;DHT22;9572;52.378;13.404;2024-03-23T14:11:01;9.50;99.90
18880;DHT22;9572;52.378;13.404;2024-03-23T14:13:29;9.50;99.90
18880;DHT22;9572;52.378;13.404;2024-03-23T14:15:55;9.60;99.90
18880;DHT22;9572;52.378;13.404;2024-03-23T14:18:23;9.60;99.90
18880;DHT22;9572;52.378;13.404;2024-03-23T14:20:48;9.60;99.90
18880;DHT22;9572;52.378;13.404;2024-03-23T14:23:15;9.70;99.90
18880;DHT22;9572;52.378;13.404;2024-03-23T14:25:41;9.90;99.90
18880;DHT22;9572;52.378;13.404;2024-03-23T14:28:08;10.00;99.90
18880;DHT22;9572;52.378;13.404;2024-03-23T14:30:39;10.30;99.90
18880;DHT22;9572;52.378;13.404;2024-03-23T14:33:06;10.40;99.90
18880;DHT22;9572;52.378;13.404;2024-03-23T14:35:33;10.40;99.90
18880;DHT22;9572;52.378;13.404;2024-03-23T14:37:59;10.20;99.90
18880;DHT22;9572;52.378;13.404;2024-03-23T14:40:25;10.10;99.90
18880;DHT22;9572;52.378;13.404;2024-03-23T14:42:53;10.00;99.90
18880;DHT22;9572;52.378;13.404;2024-03-23T14:45:19;10.10;99.90
18880;DHT22;9572;52.378;13.404;2024-03-23T14:47:45;9.90;99.90
18880;DHT22;9572;52.378;13.404;2024-03-23T14:50:11;9.70;99.90
18880;DHT22;9572;52.378;13.404;2024-03-23T14:52:42;9.50;99.90
18880;DHT22;9572;52.378;13.404;2024-03-23T14:55:09;9.30;99.90
18880;DHT22;9572;52.378;13.404;2024-03-23T14:57:36;9.10;99.90
18880;DHT22;9572;52.378;13.404;2024-03-23T15:00:03;9.00;99.90
18880;DHT22;9572;52.378;13.404;2024-03-23T15:02:31;8.80;99.90
18880;DHT22;9572;52.378;13.404;2024-03-23T15:04:57;8.40;99.90
18880;DHT22;9572;52.378;13.404;2024-03-23T15:07:24;8.00;99.90
18880;DHT22;9572;52.378;13.404;2024-03-23T15:09:51;7.70;99.90
18880;DHT22;9572;52.378;13.404;2024-03-23T15:12:19;7.60;99.90
18880;DHT22;9572;52.378;13.404;2024-03-23T15:14:45;7.50;99.90
18880;DHT22;9572;52.378;13.404;2024-03-23T15:17:13;7.50;99.90
18880;DHT22;9572;52.378;13.404;2024-03-23T15:19:38;7.40;99.90
18880;DHT22;9572;52.378;13.404;2024-03-23T15:22:05;7.60;99.90
18880;DHT22;9572;52.378;13.404;2024-03-23T15:24:31;7.80;99.90
18880;DHT22;9572;52.378;13.404;2024-03-23T15:27:00;8.00;99.90
18880;DHT22;9572;52.378;13.404;2024-03-23T15:29:26;8.10;99.90
18880;DHT22;9572;52.378;13.404;2024-03-23T15:31:53;8.20;99.90
18880;DHT22;9572;52.378;13.404;2024-03-23T15:34:19;8.30;99.90
18880;DHT22;9572;52.378;13.404;2024-03-23T15:36:47;8.20;99.90
18880;DHT22;9572;52.378;13.404;2024-03-23T15:39:13;8.20;99.90
18880;DHT22;9572;52.378;13.404;2024-03-23T15:41:40;8.20;99.90
18880;DHT22;9572;52.378;13.404;2024-03-23T15:44:07;8.10;99.90
18880;DHT22;9572;52.378;13.404;2024-03-23T15:46:34;8.10;99.90
18880;DHT22;9572;52.378;13.404;2024-03-23T15:49:00;8.10;99.90
18880;DHT22;9572;52.378;13.404;2024-03-23T15:51:26;8.10;99.90
18880;DHT22;9572;52.378;13.404;2024-03-23T15:53:58;8.00;99.90
18880;DHT22;9572;52.378;13.404;2024-03-23T15:56:25;7.90;99.90
18880;DHT22;9572;52.378;13.404;2024-03-23T15:58:50;7.90;99.90
18880;DHT22;9572;52.378;13.404;2024-03-23T16:01:18;7.80;99.90
18880;DHT22;9572;52.378;13.404;2024-03-23T16:03:44;7.70;99.90
18880;DHT22;9572;52.378;13.404;2024-03-23T16:06:11;7.70;99.90
18880;DHT22;9572;52.378;13.404;2024-03-23T16:08:37;7.70;99.90
18880;DHT22;9572;52.378;13.404;2024-03-23T16:11:04;7.70;99.90
18880;DHT22;9572;52.378;13.404;2024-03-23T16:13:31;7.60;99.90
18880;DHT22;9572;52.378;13.404;2024-03-23T16:15:59;7.70;99.90
18880;DHT22;9572;52.378;13.404;2024-03-23T16:18:26;7.70;99.90
18880;DHT22;9572;52.378;13.404;2024-03-23T16:20:54;7.70;99.90
18880;DHT22;9572;52.378;13.404;2024-03-23T16:23:20;7.60;99.90
18880;DHT22;9572;52.378;13.404;2024-03-23T16:25:47;7.60;99.90
18880;DHT22;9572;52.378;13.404;2024-03-23T16:28:24;7.50;99.90
18880;DHT22;9572;52.378;13.404;2024-03-23T16:30:55;7.50;99.90
18880;DHT22;9572;52.378;13.404;2024-03-23T16:33:21;7.40;99.90
18880;DHT22;9572;52.378;13.404;2024-03-23T16:35:59;7.40;99.90
18880;DHT22;9572;52.378;13.404;2024-03-23T16:38:25;7.40;99.90